createdAt,value
2022-08-17T00:04:34.973Z,22.30
2022-08-17T00:14:39.841Z,22.17
2022-08-17T00:24:45.266Z,22.12
2022-08-17T00:35:10.140Z,21.98
2022-08-17T00:45:53.904Z,21.97
2022-08-17T00:56:01.930Z,21.80
2022-08-17T01:06:08.826Z,21.67
2022-08-17T01:16:33.117Z,21.62
2022-08-17T01:26:41.517Z,21.49
2022-08-17T01:47:22.991Z,21.39
2022-08-17T01:57:56.619Z,21.34
2022-08-17T02:18:39.953Z,21.15
2022-08-17T02:29:06.938Z,21.12
2022-08-17T02:39:41.430Z,21.18
2022-08-17T02:49:54.073Z,21.00
2022-08-17T03:00:42.633Z,21.02
2022-08-17T03:11:20.542Z,21.10
2022-08-17T03:22:19.833Z,21.05
2022-08-17T03:33:16.007Z,21.12
2022-08-17T03:44:26.485Z,21.13
2022-08-17T03:54:59.470Z,21.03
2022-08-17T04:05:50.042Z,21.09
2022-08-17T04:16:38.917Z,21.23
2022-08-17T04:26:52.781Z,21.46
2022-08-17T04:37:20.692Z,21.58
2022-08-17T04:47:30.220Z,21.89
2022-08-17T04:57:39.450Z,22.19
2022-08-17T05:07:51.587Z,22.44
2022-08-17T05:17:55.603Z,22.66
2022-08-17T05:27:58.485Z,22.84
2022-08-17T05:38:25.318Z,23.13
2022-08-17T05:48:49.945Z,23.56
2022-08-17T05:59:16.045Z,23.73
2022-08-17T06:10:09.498Z,23.86
2022-08-17T06:20:17.599Z,24.13
2022-08-17T06:30:57.350Z,24.17
2022-08-17T06:41:08.897Z,24.33
2022-08-17T06:51:35.348Z,24.47
2022-08-17T07:01:42.680Z,24.67
2022-08-17T07:12:01.098Z,25.03
2022-08-17T07:22:57.493Z,25.31
2022-08-17T07:33:21.894Z,25.67
2022-08-17T07:43:49.291Z,25.97
2022-08-17T07:54:14.422Z,26.17
2022-08-17T08:15:11.776Z,26.40
2022-08-17T08:25:43.083Z,26.66
2022-08-17T08:35:55.077Z,26.97
2022-08-17T08:46:33.305Z,27.17
2022-08-17T08:57:29.202Z,27.29
2022-08-17T09:08:29.801Z,27.30
2022-08-17T09:18:59.895Z,27.52
2022-08-17T09:29:16.065Z,27.86
2022-08-17T09:39:36.492Z,27.91
2022-08-17T09:50:03.721Z,27.83
2022-08-17T10:00:44.702Z,28.17
2022-08-17T10:11:18.282Z,28.17
2022-08-17T10:22:00.591Z,28.07
2022-08-17T10:32:45.676Z,27.84
2022-08-17T10:43:28.936Z,28.10
2022-08-17T10:53:31.006Z,28.44
2022-08-17T11:03:33.395Z,28.46
2022-08-17T11:14:13.627Z,28.18
2022-08-17T11:24:30.249Z,28.47
2022-08-17T11:34:34.635Z,28.65
2022-08-17T11:45:19.360Z,28.78
2022-08-17T11:56:10.174Z,28.88
2022-08-17T12:06:56.664Z,29.03
2022-08-17T12:17:03.080Z,29.39
2022-08-17T12:27:10.892Z,29.49
2022-08-17T12:37:51.921Z,29.01
2022-08-17T12:48:18.209Z,28.84
2022-08-17T12:58:30.973Z,29.01
2022-08-17T13:08:49.761Z,29.29
2022-08-17T13:19:16.286Z,29.60
2022-08-17T13:29:23.385Z,29.86
2022-08-17T13:49:55.222Z,29.53
2022-08-17T14:00:35.253Z,29.01
2022-08-17T14:10:38.956Z,28.64
2022-08-17T14:20:42.712Z,28.62
2022-08-17T14:31:14.641Z,28.72
2022-08-17T14:42:26.662Z,28.71
2022-08-17T14:53:08.518Z,28.89
2022-08-17T15:03:23.145Z,28.89
2022-08-17T15:13:30.017Z,28.81
2022-08-17T15:23:32.499Z,28.65
2022-08-17T15:33:44.696Z,28.41
2022-08-17T16:06:01.518Z,27.93
2022-08-17T16:16:07.572Z,27.75
2022-08-17T16:26:10.024Z,27.65
2022-08-17T16:47:10.446Z,27.58
2022-08-17T16:57:24.756Z,27.62
2022-08-17T17:07:45.597Z,27.59
2022-08-17T17:18:21.243Z,27.51
2022-08-17T17:29:11.280Z,27.34
2022-08-17T17:39:44.391Z,27.11
2022-08-17T17:50:32.505Z,26.90
2022-08-17T18:01:44.205Z,26.71
2022-08-17T18:12:50.610Z,26.52
2022-08-17T18:22:53.111Z,26.27
2022-08-17T18:33:30.884Z,26.02
2022-08-17T18:43:44.090Z,25.80
2022-08-17T18:54:15.404Z,25.67
2022-08-17T19:04:34.661Z,25.51
2022-08-17T19:14:45.539Z,25.29
2022-08-17T19:25:02.776Z,25.10
2022-08-17T19:35:37.906Z,24.79
2022-08-17T19:57:34.502Z,24.62
2022-08-17T20:08:06.619Z,24.47
2022-08-17T20:18:51.230Z,24.38
2022-08-17T20:40:53.365Z,24.24
2022-08-17T20:51:23.125Z,24.16
2022-08-17T21:01:42.192Z,23.99
2022-08-17T21:12:35.089Z,23.94
2022-08-17T21:23:12.322Z,23.87
2022-08-17T21:33:42.642Z,23.83
2022-08-17T21:43:50.436Z,23.73
2022-08-17T21:54:29.496Z,23.75
2022-08-17T22:05:11.184Z,23.69
2022-08-17T22:15:39.760Z,23.62
2022-08-17T22:26:06.347Z,23.34
2022-08-17T22:36:47.578Z,23.27
2022-08-17T22:47:21.329Z,23.20
2022-08-17T22:57:59.135Z,23.12
2022-08-17T23:08:17.604Z,22.96
2022-08-17T23:18:31.403Z,22.88
2022-08-17T23:28:53.758Z,22.81
2022-08-17T23:39:07.607Z,22.75
2022-08-17T23:49:21.516Z,22.67
2022-08-17T23:59:27.143Z,22.65
